Molson, Washington
Current Conditions -  °F | °C
As of 12:53 PM on Friday 24 Oct 2014 (Local Time) from KOMK Reporting Station
Clear Clear  
Wind Chill: 53°   Ceiling: Unl
Heat Index: 53°   Visibility: 10mi
Dew Point: 36°   Wind: 3mph
Humidity: 52%   Direction: NA
Pressure: 30.09"   Gusts: NA
Location:  48.9273°N, 119.255°W
Report Text: KOMK 241953Z AUTO VRB03KT 10SM CLR 12/02 A3009 RMK AO2 SLP196 T01170022
Loading
Personal Weather Stations






























Interactive Weather Map
Tropical Storm Tracking
New forecast layout! Learn more

10-Day Weather Forecast

Advertisements
Track Severe Weather on mobile